sensor_id;sensor_type;location;lat;lon;timestamp;P1;durP1;ratioP1;P2;durP2;ratioP2
70122;SDS011;57489;37.404;24.920;2023-01-01T00:02:03;12.32;;;4.53;;
70122;SDS011;57489;37.404;24.920;2023-01-01T00:07:03;11.00;;;5.37;;
70122;SDS011;57489;37.404;24.920;2023-01-01T00:12:04;10.38;;;4.72;;
70122;SDS011;57489;37.404;24.920;2023-01-01T00:17:04;10.73;;;4.90;;
70122;SDS011;57489;37.404;24.920;2023-01-01T00:22:04;11.27;;;4.68;;
70122;SDS011;57489;37.404;24.920;2023-01-01T00:27:04;8.77;;;4.72;;
70122;SDS011;57489;37.404;24.920;2023-01-01T00:32:05;13.02;;;4.47;;
70122;SDS011;57489;37.404;24.920;2023-01-01T00:37:05;10.45;;;4.50;;
70122;SDS011;57489;37.404;24.920;2023-01-01T00:42:05;12.57;;;4.68;;
70122;SDS011;57489;37.404;24.920;2023-01-01T00:47:05;9.38;;;4.72;;
70122;SDS011;57489;37.404;24.920;2023-01-01T00:52:06;9.60;;;4.88;;
70122;SDS011;57489;37.404;24.920;2023-01-01T00:57:06;9.37;;;4.70;;
70122;SDS011;57489;37.404;24.920;2023-01-01T01:02:06;9.77;;;4.70;;
70122;SDS011;57489;37.404;24.920;2023-01-01T01:07:06;9.90;;;4.85;;
70122;SDS011;57489;37.404;24.920;2023-01-01T01:12:07;11.18;;;5.13;;
70122;SDS011;57489;37.404;24.920;2023-01-01T01:17:07;11.10;;;5.30;;
70122;SDS011;57489;37.404;24.920;2023-01-01T01:22:07;8.90;;;5.13;;
70122;SDS011;57489;37.404;24.920;2023-01-01T01:27:07;10.02;;;4.45;;
70122;SDS011;57489;37.404;24.920;2023-01-01T01:32:09;10.60;;;5.23;;
70122;SDS011;57489;37.404;24.920;2023-01-01T01:37:09;11.73;;;4.72;;
70122;SDS011;57489;37.404;24.920;2023-01-01T01:42:16;9.57;;;5.07;;
70122;SDS011;57489;37.404;24.920;2023-01-01T01:47:16;10.73;;;4.38;;
70122;SDS011;57489;37.404;24.920;2023-01-01T01:52:18;10.50;;;5.53;;
70122;SDS011;57489;37.404;24.920;2023-01-01T01:57:19;8.50;;;3.90;;
70122;SDS011;57489;37.404;24.920;2023-01-01T02:07:32;9.43;;;4.78;;
70122;SDS011;57489;37.404;24.920;2023-01-01T02:12:33;8.97;;;4.63;;
70122;SDS011;57489;37.404;24.920;2023-01-01T02:33:24;9.02;;;4.45;;
70122;SDS011;57489;37.404;24.920;2023-01-01T02:38:33;10.23;;;4.50;;
70122;SDS011;57489;37.404;24.920;2023-01-01T02:43:34;8.03;;;4.13;;
70122;SDS011;57489;37.404;24.920;2023-01-01T02:48:36;9.03;;;4.70;;
70122;SDS011;57489;37.404;24.920;2023-01-01T02:53:36;8.80;;;4.32;;
70122;SDS011;57489;37.404;24.920;2023-01-01T02:58:48;8.77;;;4.68;;
70122;SDS011;57489;37.404;24.920;2023-01-01T03:04:24;9.13;;;4.20;;
70122;SDS011;57489;37.404;24.920;2023-01-01T03:14:38;9.88;;;4.13;;
70122;SDS011;57489;37.404;24.920;2023-01-01T03:19:39;10.00;;;4.63;;
70122;SDS011;57489;37.404;24.920;2023-01-01T03:24:51;9.18;;;4.90;;
70122;SDS011;57489;37.404;24.920;2023-01-01T03:29:53;9.40;;;4.50;;
70122;SDS011;57489;37.404;24.920;2023-01-01T03:34:54;8.50;;;4.23;;
70122;SDS011;57489;37.404;24.920;2023-01-01T03:39:56;8.07;;;4.65;;
70122;SDS011;57489;37.404;24.920;2023-01-01T03:45:03;9.27;;;4.87;;
70122;SDS011;57489;37.404;24.920;2023-01-01T03:50:04;9.60;;;4.47;;
70122;SDS011;57489;37.404;24.920;2023-01-01T04:00:18;9.30;;;4.43;;
70122;SDS011;57489;37.404;24.920;2023-01-01T04:05:19;8.80;;;4.47;;
70122;SDS011;57489;37.404;24.920;2023-01-01T04:10:19;8.87;;;5.27;;
70122;SDS011;57489;37.404;24.920;2023-01-01T04:15:21;11.15;;;4.38;;
70122;SDS011;57489;37.404;24.920;2023-01-01T04:20:22;8.63;;;4.57;;
70122;SDS011;57489;37.404;24.920;2023-01-01T04:25:22;9.00;;;4.37;;
70122;SDS011;57489;37.404;24.920;2023-01-01T04:30:23;9.95;;;4.47;;
70122;SDS011;57489;37.404;24.920;2023-01-01T04:35:23;8.10;;;3.97;;
70122;SDS011;57489;37.404;24.920;2023-01-01T04:40:23;8.15;;;4.25;;
70122;SDS011;57489;37.404;24.920;2023-01-01T04:45:23;9.32;;;4.55;;
70122;SDS011;57489;37.404;24.920;2023-01-01T04:50:24;9.00;;;4.53;;
70122;SDS011;57489;37.404;24.920;2023-01-01T04:55:24;8.77;;;4.20;;
70122;SDS011;57489;37.404;24.920;2023-01-01T05:00:24;10.60;;;4.77;;
70122;SDS011;57489;37.404;24.920;2023-01-01T05:05:24;7.50;;;4.05;;
70122;SDS011;57489;37.404;24.920;2023-01-01T05:10:24;8.15;;;4.15;;
70122;SDS011;57489;37.404;24.920;2023-01-01T05:15:25;8.75;;;4.03;;
70122;SDS011;57489;37.404;24.920;2023-01-01T05:20:25;9.15;;;4.68;;
70122;SDS011;57489;37.404;24.920;2023-01-01T05:25:25;7.67;;;4.20;;
70122;SDS011;57489;37.404;24.920;2023-01-01T05:30:25;9.52;;;5.05;;
70122;SDS011;57489;37.404;24.920;2023-01-01T05:35:26;8.25;;;4.20;;
70122;SDS011;57489;37.404;24.920;2023-01-01T05:40:26;8.13;;;4.67;;
70122;SDS011;57489;37.404;24.920;2023-01-01T05:45:26;8.57;;;4.57;;
70122;SDS011;57489;37.404;24.920;2023-01-01T05:50:26;9.77;;;4.57;;
70122;SDS011;57489;37.404;24.920;2023-01-01T05:55:27;8.23;;;4.53;;
70122;SDS011;57489;37.404;24.920;2023-01-01T06:00:27;8.43;;;4.17;;
70122;SDS011;57489;37.404;24.920;2023-01-01T06:05:27;8.40;;;4.28;;
70122;SDS011;57489;37.404;24.920;2023-01-01T06:10:27;8.75;;;4.53;;
70122;SDS011;57489;37.404;24.920;2023-01-01T06:15:28;9.32;;;5.03;;
70122;SDS011;57489;37.404;24.920;2023-01-01T06:20:28;9.40;;;4.88;;
70122;SDS011;57489;37.404;24.920;2023-01-01T06:25:28;8.50;;;4.30;;
70122;SDS011;57489;37.404;24.920;2023-01-01T06:30:28;8.43;;;4.47;;
70122;SDS011;57489;37.404;24.920;2023-01-01T06:35:29;8.77;;;4.80;;
70122;SDS011;57489;37.404;24.920;2023-01-01T06:40:29;9.60;;;5.10;;
70122;SDS011;57489;37.404;24.920;2023-01-01T06:45:29;8.02;;;4.47;;
70122;SDS011;57489;37.404;24.920;2023-01-01T06:50:29;8.10;;;4.40;;
70122;SDS011;57489;37.404;24.920;2023-01-01T06:55:30;9.10;;;4.72;;
70122;SDS011;57489;37.404;24.920;2023-01-01T07:00:30;8.47;;;4.83;;
70122;SDS011;57489;37.404;24.920;2023-01-01T07:05:30;8.45;;;4.38;;
70122;SDS011;57489;37.404;24.920;2023-01-01T07:10:30;10.00;;;5.50;;
70122;SDS011;57489;37.404;24.920;2023-01-01T07:15:30;9.07;;;5.43;;
70122;SDS011;57489;37.404;24.920;2023-01-01T07:20:31;10.43;;;5.78;;
70122;SDS011;57489;37.404;24.920;2023-01-01T07:25:31;9.23;;;5.05;;
70122;SDS011;57489;37.404;24.920;2023-01-01T07:30:31;10.20;;;5.90;;
70122;SDS011;57489;37.404;24.920;2023-01-01T07:35:31;9.52;;;5.28;;
70122;SDS011;57489;37.404;24.920;2023-01-01T07:40:31;10.88;;;6.10;;
70122;SDS011;57489;37.404;24.920;2023-01-01T07:45:32;10.02;;;5.47;;
70122;SDS011;57489;37.404;24.920;2023-01-01T07:50:32;9.40;;;5.67;;
70122;SDS011;57489;37.404;24.920;2023-01-01T07:55:33;10.60;;;5.78;;
70122;SDS011;57489;37.404;24.920;2023-01-01T08:00:33;10.35;;;5.43;;
70122;SDS011;57489;37.404;24.920;2023-01-01T08:05:33;9.45;;;5.57;;
70122;SDS011;57489;37.404;24.920;2023-01-01T08:10:33;11.57;;;6.47;;
70122;SDS011;57489;37.404;24.920;2023-01-01T08:15:33;9.03;;;5.23;;
70122;SDS011;57489;37.404;24.920;2023-01-01T08:20:34;9.73;;;5.90;;
70122;SDS011;57489;37.404;24.920;2023-01-01T08:25:34;12.55;;;6.55;;
70122;SDS011;57489;37.404;24.920;2023-01-01T08:30:35;9.75;;;5.75;;
70122;SDS011;57489;37.404;24.920;2023-01-01T08:35:35;12.20;;;6.18;;
70122;SDS011;57489;37.404;24.920;2023-01-01T08:40:37;11.20;;;5.77;;
70122;SDS011;57489;37.404;24.920;2023-01-01T08:45:37;12.73;;;6.70;;
70122;SDS011;57489;37.404;24.920;2023-01-01T08:50:39;12.20;;;5.70;;
70122;SDS011;57489;37.404;24.920;2023-01-01T08:55:39;9.98;;;6.40;;
70122;SDS011;57489;37.404;24.920;2023-01-01T09:00:39;10.50;;;5.95;;
70122;SDS011;57489;37.404;24.920;2023-01-01T09:05:39;12.15;;;6.63;;
70122;SDS011;57489;37.404;24.920;2023-01-01T09:10:40;12.82;;;6.53;;
70122;SDS011;57489;37.404;24.920;2023-01-01T09:15:41;10.33;;;5.93;;
70122;SDS011;57489;37.404;24.920;2023-01-01T09:20:41;20.07;;;6.97;;
70122;SDS011;57489;37.404;24.920;2023-01-01T09:25:41;22.40;;;7.35;;
70122;SDS011;57489;37.404;24.920;2023-01-01T09:30:41;15.50;;;7.15;;
70122;SDS011;57489;37.404;24.920;2023-01-01T09:35:42;15.45;;;6.90;;
70122;SDS011;57489;37.404;24.920;2023-01-01T09:46:10;14.00;;;6.93;;
70122;SDS011;57489;37.404;24.920;2023-01-01T09:51:12;11.73;;;6.53;;
70122;SDS011;57489;37.404;24.920;2023-01-01T09:56:17;13.02;;;7.25;;
70122;SDS011;57489;37.404;24.920;2023-01-01T10:06:31;14.17;;;6.60;;
70122;SDS011;57489;37.404;24.920;2023-01-01T10:11:41;11.38;;;6.43;;
70122;SDS011;57489;37.404;24.920;2023-01-01T10:16:45;10.65;;;5.93;;
70122;SDS011;57489;37.404;24.920;2023-01-01T10:21:46;10.47;;;5.70;;
70122;SDS011;57489;37.404;24.920;2023-01-01T10:26:49;14.35;;;5.93;;
70122;SDS011;57489;37.404;24.920;2023-01-01T10:31:50;9.27;;;5.63;;
70122;SDS011;57489;37.404;24.920;2023-01-01T10:36:52;15.20;;;6.13;;
70122;SDS011;57489;37.404;24.920;2023-01-01T10:41:53;13.30;;;6.10;;
70122;SDS011;57489;37.404;24.920;2023-01-01T10:46:57;10.00;;;5.90;;
70122;SDS011;57489;37.404;24.920;2023-01-01T10:51:57;10.93;;;5.97;;
70122;SDS011;57489;37.404;24.920;2023-01-01T10:56:58;13.85;;;6.35;;
70122;SDS011;57489;37.404;24.920;2023-01-01T11:07:32;12.97;;;6.37;;
70122;SDS011;57489;37.404;24.920;2023-01-01T11:12:34;12.40;;;6.00;;
70122;SDS011;57489;37.404;24.920;2023-01-01T11:17:35;13.95;;;7.15;;
70122;SDS011;57489;37.404;24.920;2023-01-01T11:22:46;12.35;;;6.35;;
70122;SDS011;57489;37.404;24.920;2023-01-01T11:27:48;17.30;;;6.73;;
70122;SDS011;57489;37.404;24.920;2023-01-01T11:32:49;11.45;;;6.03;;
70122;SDS011;57489;37.404;24.920;2023-01-01T11:37:51;12.45;;;5.97;;
70122;SDS011;57489;37.404;24.920;2023-01-01T11:42:53;11.90;;;5.47;;
70122;SDS011;57489;37.404;24.920;2023-01-01T11:47:59;10.52;;;5.85;;
70122;SDS011;57489;37.404;24.920;2023-01-01T12:03:42;17.63;;;5.32;;
70122;SDS011;57489;37.404;24.920;2023-01-01T12:08:46;34.45;;;9.88;;
70122;SDS011;57489;37.404;24.920;2023-01-01T12:13:49;36.23;;;9.73;;
70122;SDS011;57489;37.404;24.920;2023-01-01T12:24:10;31.10;;;10.13;;
70122;SDS011;57489;37.404;24.920;2023-01-01T12:39:49;20.05;;;7.65;;
70122;SDS011;57489;37.404;24.920;2023-01-01T13:00:13;15.90;;;6.35;;
70122;SDS011;57489;37.404;24.920;2023-01-01T13:05:19;15.85;;;6.32;;
70122;SDS011;57489;37.404;24.920;2023-01-01T13:10:34;21.20;;;6.20;;
70122;SDS011;57489;37.404;24.920;2023-01-01T13:20:38;15.07;;;5.35;;
70122;SDS011;57489;37.404;24.920;2023-01-01T13:25:39;13.67;;;5.00;;
70122;SDS011;57489;37.404;24.920;2023-01-01T13:35:39;14.05;;;5.70;;
70122;SDS011;57489;37.404;24.920;2023-01-01T13:40:47;10.52;;;4.75;;
70122;SDS011;57489;37.404;24.920;2023-01-01T13:45:47;9.20;;;4.93;;
70122;SDS011;57489;37.404;24.920;2023-01-01T14:01:00;13.93;;;4.78;;
70122;SDS011;57489;37.404;24.920;2023-01-01T14:06:10;9.20;;;4.93;;
70122;SDS011;57489;37.404;24.920;2023-01-01T14:11:18;9.40;;;4.45;;
70122;SDS011;57489;37.404;24.920;2023-01-01T14:16:18;10.00;;;4.77;;
70122;SDS011;57489;37.404;24.920;2023-01-01T14:21:20;10.38;;;4.88;;
70122;SDS011;57489;37.404;24.920;2023-01-01T14:26:22;22.27;;;5.07;;
70122;SDS011;57489;37.404;24.920;2023-01-01T14:31:26;10.20;;;5.13;;
70122;SDS011;57489;37.404;24.920;2023-01-01T14:36:28;8.80;;;4.40;;
70122;SDS011;57489;37.404;24.920;2023-01-01T14:41:36;11.15;;;4.45;;
70122;SDS011;57489;37.404;24.920;2023-01-01T14:46:41;11.40;;;4.45;;
70122;SDS011;57489;37.404;24.920;2023-01-01T14:51:53;11.37;;;4.07;;
70122;SDS011;57489;37.404;24.920;2023-01-01T14:56:54;11.13;;;3.75;;
70122;SDS011;57489;37.404;24.920;2023-01-01T15:07:20;9.27;;;4.68;;
70122;SDS011;57489;37.404;24.920;2023-01-01T15:12:21;10.93;;;4.20;;
70122;SDS011;57489;37.404;24.920;2023-01-01T15:17:23;10.05;;;4.38;;
70122;SDS011;57489;37.404;24.920;2023-01-01T15:22:30;12.43;;;4.65;;
70122;SDS011;57489;37.404;24.920;2023-01-01T15:27:34;11.33;;;4.33;;
70122;SDS011;57489;37.404;24.920;2023-01-01T15:32:36;9.50;;;4.35;;
70122;SDS011;57489;37.404;24.920;2023-01-01T15:37:47;9.32;;;4.38;;
70122;SDS011;57489;37.404;24.920;2023-01-01T15:53:08;9.75;;;4.40;;
70122;SDS011;57489;37.404;24.920;2023-01-01T15:58:14;7.90;;;4.07;;
70122;SDS011;57489;37.404;24.920;2023-01-01T16:03:19;10.52;;;4.82;;
70122;SDS011;57489;37.404;24.920;2023-01-01T16:08:20;12.50;;;4.75;;
70122;SDS011;57489;37.404;24.920;2023-01-01T16:13:21;8.40;;;4.40;;
70122;SDS011;57489;37.404;24.920;2023-01-01T16:18:22;9.23;;;4.57;;
70122;SDS011;57489;37.404;24.920;2023-01-01T16:23:23;9.97;;;4.47;;
70122;SDS011;57489;37.404;24.920;2023-01-01T16:28:23;17.85;;;4.55;;
70122;SDS011;57489;37.404;24.920;2023-01-01T16:33:23;8.10;;;4.80;;
70122;SDS011;57489;37.404;24.920;2023-01-01T16:38:24;9.45;;;4.15;;
70122;SDS011;57489;37.404;24.920;2023-01-01T16:43:24;10.73;;;4.67;;
70122;SDS011;57489;37.404;24.920;2023-01-01T16:48:24;10.23;;;4.83;;
70122;SDS011;57489;37.404;24.920;2023-01-01T16:53:25;9.15;;;4.40;;
70122;SDS011;57489;37.404;24.920;2023-01-01T16:58:25;10.00;;;4.10;;
70122;SDS011;57489;37.404;24.920;2023-01-01T17:03:25;9.25;;;4.45;;
70122;SDS011;57489;37.404;24.920;2023-01-01T17:08:25;9.63;;;5.00;;
70122;SDS011;57489;37.404;24.920;2023-01-01T17:13:26;10.00;;;4.67;;
70122;SDS011;57489;37.404;24.920;2023-01-01T17:18:26;14.03;;;5.00;;
70122;SDS011;57489;37.404;24.920;2023-01-01T17:23:26;8.13;;;4.22;;
70122;SDS011;57489;37.404;24.920;2023-01-01T17:28:26;11.50;;;5.32;;
70122;SDS011;57489;37.404;24.920;2023-01-01T17:33:27;10.73;;;5.30;;
70122;SDS011;57489;37.404;24.920;2023-01-01T17:38:27;11.43;;;4.93;;
70122;SDS011;57489;37.404;24.920;2023-01-01T17:43:29;12.88;;;5.53;;
70122;SDS011;57489;37.404;24.920;2023-01-01T17:48:30;10.98;;;5.38;;
70122;SDS011;57489;37.404;24.920;2023-01-01T17:53:30;10.88;;;5.93;;
70122;SDS011;57489;37.404;24.920;2023-01-01T17:58:30;9.57;;;4.95;;
70122;SDS011;57489;37.404;24.920;2023-01-01T18:03:31;11.20;;;4.80;;
70122;SDS011;57489;37.404;24.920;2023-01-01T18:08:31;11.07;;;4.30;;
70122;SDS011;57489;37.404;24.920;2023-01-01T18:13:31;10.07;;;5.47;;
70122;SDS011;57489;37.404;24.920;2023-01-01T18:18:38;12.73;;;4.67;;
70122;SDS011;57489;37.404;24.920;2023-01-01T18:23:39;9.38;;;4.85;;
70122;SDS011;57489;37.404;24.920;2023-01-01T18:28:39;10.90;;;4.93;;
70122;SDS011;57489;37.404;24.920;2023-01-01T18:33:40;9.50;;;4.57;;
70122;SDS011;57489;37.404;24.920;2023-01-01T18:38:42;11.33;;;5.00;;
70122;SDS011;57489;37.404;24.920;2023-01-01T18:43:43;8.70;;;4.72;;
70122;SDS011;57489;37.404;24.920;2023-01-01T18:48:43;9.00;;;4.68;;
70122;SDS011;57489;37.404;24.920;2023-01-01T18:53:43;11.95;;;4.90;;
70122;SDS011;57489;37.404;24.920;2023-01-01T18:58:44;9.70;;;5.13;;
70122;SDS011;57489;37.404;24.920;2023-01-01T19:03:47;9.40;;;4.70;;
70122;SDS011;57489;37.404;24.920;2023-01-01T19:08:48;9.87;;;4.97;;
70122;SDS011;57489;37.404;24.920;2023-01-01T19:13:49;11.02;;;4.63;;
70122;SDS011;57489;37.404;24.920;2023-01-01T19:18:52;9.95;;;4.70;;
70122;SDS011;57489;37.404;24.920;2023-01-01T19:23:59;8.93;;;3.70;;
70122;SDS011;57489;37.404;24.920;2023-01-01T19:34:02;13.20;;;4.20;;
70122;SDS011;57489;37.404;24.920;2023-01-01T19:39:03;8.33;;;4.00;;
70122;SDS011;57489;37.404;24.920;2023-01-01T19:44:03;8.55;;;4.20;;
70122;SDS011;57489;37.404;24.920;2023-01-01T19:49:04;7.33;;;3.80;;
70122;SDS011;57489;37.404;24.920;2023-01-01T19:54:04;9.63;;;4.22;;
70122;SDS011;57489;37.404;24.920;2023-01-01T19:59:04;8.60;;;3.47;;
70122;SDS011;57489;37.404;24.920;2023-01-01T20:04:05;8.77;;;4.10;;
70122;SDS011;57489;37.404;24.920;2023-01-01T20:09:05;6.70;;;3.40;;
70122;SDS011;57489;37.404;24.920;2023-01-01T20:14:05;6.53;;;3.20;;
70122;SDS011;57489;37.404;24.920;2023-01-01T20:19:05;8.33;;;3.37;;
70122;SDS011;57489;37.404;24.920;2023-01-01T20:24:06;7.23;;;3.60;;
70122;SDS011;57489;37.404;24.920;2023-01-01T20:29:06;8.35;;;3.67;;
70122;SDS011;57489;37.404;24.920;2023-01-01T20:34:06;6.80;;;3.42;;
70122;SDS011;57489;37.404;24.920;2023-01-01T20:39:06;9.32;;;3.95;;
70122;SDS011;57489;37.404;24.920;2023-01-01T20:44:07;6.45;;;2.88;;
70122;SDS011;57489;37.404;24.920;2023-01-01T20:49:07;7.05;;;3.30;;
70122;SDS011;57489;37.404;24.920;2023-01-01T20:54:07;7.20;;;3.20;;
70122;SDS011;57489;37.404;24.920;2023-01-01T20:59:08;8.00;;;3.47;;
70122;SDS011;57489;37.404;24.920;2023-01-01T21:04:08;7.67;;;3.80;;
70122;SDS011;57489;37.404;24.920;2023-01-01T21:09:08;8.05;;;3.13;;
70122;SDS011;57489;37.404;24.920;2023-01-01T21:14:08;7.20;;;3.33;;
70122;SDS011;57489;37.404;24.920;2023-01-01T21:19:09;6.28;;;3.10;;
70122;SDS011;57489;37.404;24.920;2023-01-01T21:24:28;8.70;;;3.40;;
70122;SDS011;57489;37.404;24.920;2023-01-01T21:29:31;7.43;;;3.03;;
70122;SDS011;57489;37.404;24.920;2023-01-01T21:34:38;7.30;;;3.03;;
70122;SDS011;57489;37.404;24.920;2023-01-01T21:39:39;7.17;;;3.20;;
70122;SDS011;57489;37.404;24.920;2023-01-01T21:44:39;8.52;;;3.35;;
70122;SDS011;57489;37.404;24.920;2023-01-01T21:49:39;8.13;;;3.47;;
70122;SDS011;57489;37.404;24.920;2023-01-01T21:54:39;6.90;;;3.17;;
70122;SDS011;57489;37.404;24.920;2023-01-01T21:59:43;8.20;;;3.33;;
70122;SDS011;57489;37.404;24.920;2023-01-01T22:04:45;7.15;;;3.58;;
70122;SDS011;57489;37.404;24.920;2023-01-01T22:09:46;8.97;;;4.10;;
70122;SDS011;57489;37.404;24.920;2023-01-01T22:14:48;7.57;;;4.00;;
70122;SDS011;57489;37.404;24.920;2023-01-01T22:19:49;7.63;;;3.58;;
70122;SDS011;57489;37.404;24.920;2023-01-01T22:24:54;7.53;;;3.40;;
70122;SDS011;57489;37.404;24.920;2023-01-01T22:29:59;6.95;;;3.35;;
70122;SDS011;57489;37.404;24.920;2023-01-01T22:35:05;12.25;;;4.15;;
70122;SDS011;57489;37.404;24.920;2023-01-01T22:40:08;8.03;;;3.63;;
70122;SDS011;57489;37.404;24.920;2023-01-01T22:45:15;7.63;;;3.50;;
70122;SDS011;57489;37.404;24.920;2023-01-01T22:50:24;7.53;;;3.30;;
70122;SDS011;57489;37.404;24.920;2023-01-01T22:55:26;9.02;;;3.70;;
70122;SDS011;57489;37.404;24.920;2023-01-01T23:00:26;10.98;;;3.67;;
70122;SDS011;57489;37.404;24.920;2023-01-01T23:05:26;8.13;;;3.23;;
70122;SDS011;57489;37.404;24.920;2023-01-01T23:10:26;7.17;;;3.53;;
70122;SDS011;57489;37.404;24.920;2023-01-01T23:15:27;9.82;;;3.70;;
70122;SDS011;57489;37.404;24.920;2023-01-01T23:20:27;7.43;;;3.97;;
70122;SDS011;57489;37.404;24.920;2023-01-01T23:25:28;7.65;;;3.15;;
70122;SDS011;57489;37.404;24.920;2023-01-01T23:30:29;11.05;;;3.88;;
70122;SDS011;57489;37.404;24.920;2023-01-01T23:35:29;8.60;;;3.53;;
70122;SDS011;57489;37.404;24.920;2023-01-01T23:40:29;7.90;;;4.00;;
70122;SDS011;57489;37.404;24.920;2023-01-01T23:45:29;8.68;;;3.58;;
70122;SDS011;57489;37.404;24.920;2023-01-01T23:50:30;7.20;;;3.47;;
70122;SDS011;57489;37.404;24.920;2023-01-01T23:55:30;7.38;;;3.55;;
